Time,TemperatureF,DewpointF,PressureIn,WindDirection,WindDirectionDegrees,WindSpeedMPH,WindSpeedGustMPH,Humidity,HourlyPrecipIn,Conditions,Clouds,dailyrainin,SoftwareType,DateUTC
2013-03-04 00:00:00,23.3,18.9,29.88,NW,306,4.0,7.0,83,0.00,,,0.00,Wunderground v.1.15,2013-03-04 05:00:00,
2013-03-04 00:05:00,23.3,18.6,29.88,WNW,295,5.0,7.0,82,0.00,,,0.00,Wunderground v.1.15,2013-03-04 05:05:00,
2013-03-04 00:10:00,23.3,18.6,29.89,West,274,5.0,5.0,82,0.00,,,0.00,Wunderground v.1.15,2013-03-04 05:10:00,
2013-03-04 00:15:00,23.3,18.3,29.89,WNW,293,5.0,5.0,81,0.00,,,0.00,Wunderground v.1.15,2013-03-04 05:15:00,
2013-03-04 00:25:00,23.2,17.9,29.89,NW,306,5.0,5.0,80,0.00,,,0.00,Wunderground v.1.15,2013-03-04 05:25:00,
2013-03-04 00:30:00,23.2,17.9,29.89,WNW,296,5.0,6.0,80,0.00,,,0.00,Wunderground v.1.15,2013-03-04 05:30:00,
2013-03-04 00:40:00,23.1,17.8,29.89,WNW,297,6.0,6.0,80,0.00,,,0.00,Wunderground v.1.15,2013-03-04 05:40:00,
2013-03-04 00:45:00,23.1,17.8,29.89,WNW,283,5.0,6.0,80,0.00,,,0.00,Wunderground v.1.15,2013-03-04 05:45:00,
2013-03-04 00:50:00,23.0,17.7,29.89,WNW,303,5.0,5.0,80,0.00,,,0.00,Wunderground v.1.15,2013-03-04 05:50:00,
2013-03-04 00:55:00,23.0,17.7,29.89,NW,318,5.0,7.0,80,0.00,,,0.00,Wunderground v.1.15,2013-03-04 05:55:00,
2013-03-04 01:00:00,23.0,18.0,29.89,WNW,290,5.0,8.0,81,0.00,,,0.00,Wunderground v.1.15,2013-03-04 06:00:00,
2013-03-04 01:10:00,22.9,17.9,29.89,WNW,302,4.0,4.0,81,0.00,,,0.00,Wunderground v.1.15,2013-03-04 06:10:00,
2013-03-04 01:20:00,22.9,17.9,29.90,WNW,285,4.0,11.0,81,0.00,,,0.00,Wunderground v.1.15,2013-03-04 06:20:00,
2013-03-04 01:30:00,22.9,17.9,29.90,NW,310,5.0,5.0,81,0.00,,,0.00,Wunderground v.1.15,2013-03-04 06:30:00,
2013-03-04 01:35:00,22.9,18.2,29.90,WNW,282,4.0,6.0,82,0.00,,,0.00,Wunderground v.1.15,2013-03-04 06:35:00,
2013-03-04 01:40:00,22.9,18.2,29.90,West,279,5.0,5.0,82,0.00,,,0.00,Wunderground v.1.15,2013-03-04 06:40:00,
2013-03-04 01:50:00,22.9,18.2,29.90,NW,308,4.0,7.0,82,0.00,,,0.00,Wunderground v.1.15,2013-03-04 06:50:00,
2013-03-04 02:00:00,22.9,18.2,29.90,NW,304,5.0,5.0,82,0.00,,,0.00,Wunderground v.1.15,2013-03-04 07:00:00,
2013-03-04 02:05:00,22.9,18.2,29.90,WNW,300,4.0,5.0,82,0.00,,,0.00,Wunderground v.1.15,2013-03-04 07:05:00,
2013-03-04 02:10:00,22.9,18.5,29.90,WNW,302,4.0,5.0,83,0.00,,,0.00,Wunderground v.1.15,2013-03-04 07:10:00,
2013-03-04 02:20:00,22.9,18.5,29.90,NW,304,5.0,5.0,83,0.00,,,0.00,Wunderground v.1.15,2013-03-04 07:20:00,
2013-03-04 02:25:00,22.9,18.5,29.90,WNW,297,5.0,5.0,83,0.00,,,0.00,Wunderground v.1.15,2013-03-04 07:25:00,
2013-03-04 02:30:00,22.9,18.5,29.90,WSW,253,5.0,7.0,83,0.00,,,0.00,Wunderground v.1.15,2013-03-04 07:30:00,
2013-03-04 02:40:00,22.9,18.5,29.90,NW,310,5.0,5.0,83,0.00,,,0.00,Wunderground v.1.15,2013-03-04 07:40:00,
2013-03-04 02:50:00,22.9,18.5,29.90,NW,313,4.0,5.0,83,0.00,,,0.00,Wunderground v.1.15,2013-03-04 07:50:00,
2013-03-04 02:55:00,22.9,18.5,29.90,WNW,296,4.0,5.0,83,0.00,,,0.00,Wunderground v.1.15,2013-03-04 07:55:00,
2013-03-04 03:05:00,22.9,18.2,29.90,NNW,328,5.0,5.0,82,0.00,,,0.00,Wunderground v.1.15,2013-03-04 08:05:00,
2013-03-04 03:10:00,22.9,18.2,29.90,WNW,298,5.0,7.0,82,0.00,,,0.00,Wunderground v.1.15,2013-03-04 08:10:00,
2013-03-04 03:15:00,22.9,18.2,29.90,WNW,289,6.0,7.0,82,0.00,,,0.00,Wunderground v.1.15,2013-03-04 08:15:00,
2013-03-04 03:25:00,22.8,18.1,29.90,WNW,300,5.0,6.0,82,0.00,,,0.00,Wunderground v.1.15,2013-03-04 08:25:00,
2013-03-04 03:30:00,22.8,17.6,29.90,NNW,329,6.0,8.0,80,0.00,,,0.00,Wunderground v.1.15,2013-03-04 08:30:00,
2013-03-04 03:35:00,22.9,17.7,29.91,West,275,7.0,10.0,80,0.00,,,0.00,Wunderground v.1.15,2013-03-04 08:35:00,
2013-03-04 03:40:00,22.9,17.7,29.91,WNW,292,7.0,9.0,80,0.00,,,0.00,Wunderground v.1.15,2013-03-04 08:40:00,
2013-03-04 03:50:00,22.8,17.3,29.90,WNW,293,8.0,8.0,79,0.00,,,0.00,Wunderground v.1.15,2013-03-04 08:50:00,
2013-03-04 04:00:00,22.8,17.8,29.91,NW,310,5.0,5.0,81,0.00,,,0.00,Wunderground v.1.15,2013-03-04 09:00:00,
2013-03-04 04:10:00,22.6,17.9,29.91,WNW,283,4.0,7.0,82,0.00,,,0.00,Wunderground v.1.15,2013-03-04 09:10:00,
2013-03-04 04:15:00,22.6,18.2,29.91,WNW,296,4.0,7.0,83,0.00,,,0.00,Wunderground v.1.15,2013-03-04 09:15:00,
2013-03-04 04:25:00,22.5,18.4,29.92,WNW,290,4.0,4.0,84,0.00,,,0.00,Wunderground v.1.15,2013-03-04 09:25:00,
2013-03-04 04:30:00,22.4,18.3,29.92,NW,317,4.0,7.0,84,0.00,,,0.00,Wunderground v.1.15,2013-03-04 09:30:00,
2013-03-04 04:35:00,22.4,18.3,29.92,WSW,257,5.0,7.0,84,0.00,,,0.00,Wunderground v.1.15,2013-03-04 09:35:00,
2013-03-04 04:40:00,22.3,18.2,29.92,WNW,292,6.0,6.0,84,0.00,,,0.00,Wunderground v.1.15,2013-03-04 09:40:00,
2013-03-04 04:50:00,22.2,18.1,29.92,West,271,5.0,5.0,84,0.00,,,0.00,Wunderground v.1.15,2013-03-04 09:50:00,
2013-03-04 05:00:00,22.1,18.0,29.93,NW,304,4.0,4.0,84,0.00,,,0.00,Wunderground v.1.15,2013-03-04 10:00:00,
2013-03-04 05:05:00,22.0,17.9,29.93,WNW,296,4.0,4.0,84,0.00,,,0.00,Wunderground v.1.15,2013-03-04 10:05:00,
2013-03-04 05:10:00,22.0,17.9,29.93,WSW,255,6.0,6.0,84,0.00,,,0.00,Wunderground v.1.15,2013-03-04 10:10:00,
2013-03-04 05:20:00,22.0,17.6,29.93,NNW,331,7.0,7.0,83,0.00,,,0.00,Wunderground v.1.15,2013-03-04 10:20:00,
2013-03-04 05:30:00,22.1,17.7,29.93,NW,313,6.0,8.0,83,0.00,,,0.00,Wunderground v.1.15,2013-03-04 10:30:00,
2013-03-04 05:35:00,22.1,17.4,29.93,NW,314,6.0,8.0,82,0.00,,,0.00,Wunderground v.1.15,2013-03-04 10:35:00,
2013-03-04 05:40:00,22.3,17.6,29.93,WNW,284,7.0,7.0,82,0.00,,,0.00,Wunderground v.1.15,2013-03-04 10:40:00,
2013-03-04 05:50:00,22.3,17.4,29.93,WNW,297,5.0,5.0,81,0.00,,,0.00,Wunderground v.1.15,2013-03-04 10:50:00,
2013-03-04 05:55:00,22.3,17.4,29.93,WNW,293,5.0,5.0,81,0.00,,,0.00,Wunderground v.1.15,2013-03-04 10:55:00,
2013-03-04 06:00:00,22.2,17.3,29.94,WNW,285,5.0,5.0,81,0.00,,,0.00,Wunderground v.1.15,2013-03-04 11:00:00,
2013-03-04 06:10:00,22.1,17.4,29.94,NW,307,5.0,5.0,82,0.00,,,0.00,Wunderground v.1.15,2013-03-04 11:10:00,
2013-03-04 06:20:00,22.0,17.6,29.94,West,273,5.0,5.0,83,0.00,,,0.00,Wunderground v.1.15,2013-03-04 11:20:00,
2013-03-04 06:25:00,21.9,17.5,29.94,WNW,297,5.0,5.0,83,0.00,,,0.00,Wunderground v.1.15,2013-03-04 11:25:00,
2013-03-04 06:35:00,21.8,17.7,29.94,WNW,287,4.0,7.0,84,0.00,,,0.00,Wunderground v.1.15,2013-03-04 11:35:00,
2013-03-04 06:40:00,21.8,17.7,29.95,WNW,297,5.0,5.0,84,0.00,,,0.00,Wunderground v.1.15,2013-03-04 11:40:00,
2013-03-04 06:50:00,21.8,17.7,29.95,West,281,4.0,4.0,84,0.00,,,0.00,Wunderground v.1.15,2013-03-04 11:50:00,
2013-03-04 07:00:00,22.0,17.3,29.95,West,281,5.0,5.0,82,0.00,,,0.00,Wunderground v.1.15,2013-03-04 12:00:00,
2013-03-04 07:10:00,22.1,16.6,29.95,NW,319,6.0,10.0,79,0.00,,,0.00,Wunderground v.1.15,2013-03-04 12:10:00,
2013-03-04 07:20:00,22.1,16.6,29.95,NW,315,7.0,7.0,79,0.00,,,0.00,Wunderground v.1.15,2013-03-04 12:20:00,
2013-03-04 07:25:00,22.0,16.5,29.95,WNW,293,7.0,7.0,79,0.00,,,0.00,Wunderground v.1.15,2013-03-04 12:25:00,
2013-03-04 07:30:00,22.0,16.5,29.95,WNW,295,7.0,7.0,79,0.00,,,0.00,Wunderground v.1.15,2013-03-04 12:30:00,
2013-03-04 07:40:00,22.0,16.5,29.96,WNW,294,5.0,5.0,79,0.00,,,0.00,Wunderground v.1.15,2013-03-04 12:40:00,
2013-03-04 07:50:00,22.0,16.2,29.96,NE,44,5.0,5.0,78,0.00,,,0.00,Wunderground v.1.15,2013-03-04 12:50:00,
2013-03-04 08:00:00,22.2,16.4,29.96,NW,315,5.0,5.0,78,0.00,,,0.00,Wunderground v.1.15,2013-03-04 13:00:00,
2013-03-04 08:10:00,22.2,16.4,29.96,NW,307,7.0,7.0,78,0.00,,,0.00,Wunderground v.1.15,2013-03-04 13:10:00,
2013-03-04 08:20:00,22.3,16.5,29.96,NW,307,7.0,7.0,78,0.00,,,0.00,Wunderground v.1.15,2013-03-04 13:20:00,
2013-03-04 08:30:00,22.5,16.7,29.95,NW,323,6.0,8.0,78,0.00,,,0.00,Wunderground v.1.15,2013-03-04 13:30:00,
2013-03-04 08:40:00,22.7,16.9,29.95,NW,307,6.0,8.0,78,0.00,,,0.00,Wunderground v.1.15,2013-03-04 13:40:00,
2013-03-04 08:50:00,23.0,17.2,29.95,West,270,6.0,8.0,78,0.00,,,0.00,Wunderground v.1.15,2013-03-04 13:50:00,
2013-03-04 09:00:00,23.3,17.2,29.96,NW,323,6.0,7.0,77,0.00,,,0.00,Wunderground v.1.15,2013-03-04 14:00:00,
2013-03-04 09:05:00,23.4,17.3,29.95,WNW,298,6.0,7.0,77,0.00,,,0.00,Wunderground v.1.15,2013-03-04 14:05:00,
2013-03-04 09:10:00,23.5,17.0,29.95,North,8,7.0,7.0,76,0.00,,,0.00,Wunderground v.1.15,2013-03-04 14:10:00,
2013-03-04 09:15:00,23.6,17.1,29.96,WNW,294,8.0,8.0,76,0.00,,,0.00,Wunderground v.1.15,2013-03-04 14:15:00,
2013-03-04 09:25:00,23.9,17.1,29.95,WNW,294,9.0,9.0,75,0.00,,,0.00,Wunderground v.1.15,2013-03-04 14:25:00,
2013-03-04 09:30:00,24.0,17.2,29.95,NW,319,8.0,8.0,75,0.00,,,0.00,Wunderground v.1.15,2013-03-04 14:30:00,
2013-03-04 09:40:00,24.2,17.4,29.96,West,271,7.0,7.0,75,0.00,,,0.00,Wunderground v.1.15,2013-03-04 14:40:00,
2013-03-04 09:50:00,24.3,17.5,29.96,WNW,302,7.0,9.0,75,0.00,,,0.00,Wunderground v.1.15,2013-03-04 14:50:00,
2013-03-04 10:00:00,24.4,17.3,29.96,WNW,293,7.0,7.0,74,0.00,,,0.00,Wunderground v.1.15,2013-03-04 15:00:00,
2013-03-04 10:05:00,24.4,17.3,29.96,NW,317,8.0,8.0,74,0.00,,,0.00,Wunderground v.1.15,2013-03-04 15:05:00,
2013-03-04 10:15:00,24.8,17.7,29.96,WNW,284,5.0,8.0,74,0.00,,,0.00,Wunderground v.1.15,2013-03-04 15:15:00,
2013-03-04 10:20:00,24.8,17.7,29.96,WNW,285,6.0,6.0,74,0.00,,,0.00,Wunderground v.1.15,2013-03-04 15:20:00,
2013-03-04 10:30:00,25.1,17.7,29.96,NW,314,5.0,11.0,73,0.00,,,0.00,Wunderground v.1.15,2013-03-04 15:30:00,
2013-03-04 10:40:00,25.4,17.9,29.96,NW,320,6.0,6.0,73,0.00,,,0.00,Wunderground v.1.15,2013-03-04 15:40:00,
2013-03-04 10:50:00,25.1,18.0,29.96,WNW,286,7.0,7.0,74,0.00,,,0.00,Wunderground v.1.15,2013-03-04 15:50:00,
2013-03-04 11:00:00,24.8,18.3,29.96,WNW,295,7.0,12.0,76,0.00,,,0.00,Wunderground v.1.15,2013-03-04 16:00:00,
2013-03-04 11:05:00,24.6,18.1,29.96,West,270,8.0,12.0,76,0.00,,,0.00,Wunderground v.1.15,2013-03-04 16:05:00,
2013-03-04 11:15:00,24.7,18.2,29.96,WNW,302,7.0,8.0,76,0.00,,,0.00,Wunderground v.1.15,2013-03-04 16:15:00,
2013-03-04 11:25:00,24.8,18.6,29.96,NNW,327,7.0,9.0,77,0.00,,,0.00,Wunderground v.1.15,2013-03-04 16:25:00,
2013-03-04 11:30:00,24.9,18.7,29.96,WNW,288,7.0,7.0,77,0.00,,,0.00,Wunderground v.1.15,2013-03-04 16:30:00,
2013-03-04 11:40:00,25.4,19.2,29.96,West,269,5.0,11.0,77,0.00,,,0.00,Wunderground v.1.15,2013-03-04 16:40:00,
2013-03-04 11:50:00,25.4,19.2,29.96,WNW,298,6.0,6.0,77,0.00,,,0.00,Wunderground v.1.15,2013-03-04 16:50:00,
2013-03-04 11:55:00,25.5,19.3,29.96,WSW,243,6.0,6.0,77,0.00,,,0.00,Wunderground v.1.15,2013-03-04 16:55:00,
2013-03-04 12:00:00,25.6,19.1,29.96,West,280,7.0,7.0,76,0.00,,,0.00,Wunderground v.1.15,2013-03-04 17:00:00,
2013-03-04 12:10:00,26.2,19.4,29.96,SW,219,5.0,6.0,75,0.00,,,0.00,Wunderground v.1.15,2013-03-04 17:10:00,
2013-03-04 12:20:00,26.6,19.4,29.96,West,261,6.0,6.0,74,0.00,,,0.00,Wunderground v.1.15,2013-03-04 17:20:00,
2013-03-04 12:30:00,26.8,19.0,29.96,SW,226,6.0,6.0,72,0.00,,,0.00,Wunderground v.1.15,2013-03-04 17:30:00,
2013-03-04 12:40:00,26.9,19.1,29.95,NNW,328,6.0,6.0,72,0.00,,,0.00,Wunderground v.1.15,2013-03-04 17:40:00,
2013-03-04 12:50:00,26.9,19.1,29.95,West,276,7.0,8.0,72,0.00,,,0.00,Wunderground v.1.15,2013-03-04 17:50:00,
2013-03-04 13:00:00,27.2,19.7,29.96,West,280,6.0,6.0,73,0.00,,,0.00,Wunderground v.1.15,2013-03-04 18:00:00,
2013-03-04 13:05:00,27.6,19.1,29.95,WNW,297,5.0,6.0,70,0.00,,,0.00,Wunderground v.1.15,2013-03-04 18:05:00,
2013-03-04 13:15:00,27.7,18.8,29.95,WNW,289,6.0,6.0,69,0.00,,,0.00,Wunderground v.1.15,2013-03-04 18:15:00,
2013-03-04 13:25:00,27.5,18.7,29.95,NNW,333,7.0,7.0,69,0.00,,,0.00,Wunderground v.1.15,2013-03-04 18:25:00,
2013-03-04 13:30:00,27.5,18.3,29.94,NNW,341,8.0,12.0,68,0.00,,,0.00,Wunderground v.1.15,2013-03-04 18:30:00,
2013-03-04 13:35:00,28.1,19.2,29.95,NW,307,8.0,12.0,69,0.00,,,0.00,Wunderground v.1.15,2013-03-04 18:35:00,
2013-03-04 13:40:00,28.3,19.1,29.95,WNW,296,6.0,6.0,68,0.00,,,0.00,Wunderground v.1.15,2013-03-04 18:40:00,
2013-03-04 13:50:00,28.1,18.5,29.95,NNW,338,8.0,8.0,67,0.00,,,0.00,Wunderground v.1.15,2013-03-04 18:50:00,
2013-03-04 13:55:00,27.9,18.4,29.95,NW,316,9.0,9.0,67,0.00,,,0.00,Wunderground v.1.15,2013-03-04 18:55:00,
2013-03-04 14:00:00,28.0,18.8,29.95,WNW,288,8.0,13.0,68,0.00,,,0.00,Wunderground v.1.15,2013-03-04 19:00:00,
2013-03-04 14:10:00,28.1,18.9,29.95,WNW,294,8.0,8.0,68,0.00,,,0.00,Wunderground v.1.15,2013-03-04 19:10:00,
2013-03-04 14:20:00,28.5,19.3,29.95,WNW,301,6.0,6.0,68,0.00,,,0.00,Wunderground v.1.15,2013-03-04 19:20:00,
2013-03-04 14:30:00,29.2,18.9,29.95,WNW,298,6.0,7.0,65,0.00,,,0.00,Wunderground v.1.15,2013-03-04 19:30:00,
2013-03-04 14:40:00,28.9,19.0,29.95,WNW,287,8.0,8.0,66,0.00,,,0.00,Wunderground v.1.15,2013-03-04 19:40:00,
2013-03-04 14:50:00,29.1,19.2,29.95,WNW,288,8.0,8.0,66,0.00,,,0.00,Wunderground v.1.15,2013-03-04 19:50:00,
2013-03-04 15:00:00,29.2,18.9,29.95,WNW,301,6.0,7.0,65,0.00,,,0.00,Wunderground v.1.15,2013-03-04 20:00:00,
2013-03-04 15:05:00,29.2,18.9,29.95,West,259,6.0,12.0,65,0.00,,,0.00,Wunderground v.1.15,2013-03-04 20:05:00,
2013-03-04 15:15:00,29.1,19.2,29.95,WNW,293,7.0,12.0,66,0.00,,,0.00,Wunderground v.1.15,2013-03-04 20:15:00,
2013-03-04 15:25:00,29.3,19.3,29.95,NNW,342,7.0,9.0,66,0.00,,,0.00,Wunderground v.1.15,2013-03-04 20:25:00,
2013-03-04 15:35:00,29.3,19.3,29.95,NW,304,6.0,10.0,66,0.00,,,0.00,Wunderground v.1.15,2013-03-04 20:35:00,
2013-03-04 15:45:00,29.4,19.4,29.95,WNW,283,6.0,9.0,66,0.00,,,0.00,Wunderground v.1.15,2013-03-04 20:45:00,
2013-03-04 15:55:00,29.3,19.3,29.96,WNW,290,6.0,10.0,66,0.00,,,0.00,Wunderground v.1.15,2013-03-04 20:55:00,
2013-03-04 16:00:00,29.2,19.2,29.96,NNW,337,7.0,9.0,66,0.00,,,0.00,Wunderground v.1.15,2013-03-04 21:00:00,
2013-03-04 16:10:00,29.3,19.3,29.96,WNW,302,7.0,10.0,66,0.00,,,0.00,Wunderground v.1.15,2013-03-04 21:10:00,
2013-03-04 16:15:00,29.3,19.7,29.95,WNW,299,7.0,10.0,67,0.00,,,0.00,Wunderground v.1.15,2013-03-04 21:15:00,
2013-03-04 16:25:00,29.4,19.8,29.96,NW,305,7.0,7.0,67,0.00,,,0.00,Wunderground v.1.15,2013-03-04 21:25:00,
2013-03-04 16:30:00,29.3,19.7,29.96,WNW,284,8.0,8.0,67,0.00,,,0.00,Wunderground v.1.15,2013-03-04 21:30:00,
2013-03-04 16:35:00,29.3,19.7,29.96,NW,311,8.0,8.0,67,0.00,,,0.00,Wunderground v.1.15,2013-03-04 21:35:00,
2013-03-04 16:45:00,29.3,20.0,29.96,NW,307,6.0,8.0,68,0.00,,,0.00,Wunderground v.1.15,2013-03-04 21:45:00,
2013-03-04 16:55:00,29.2,19.9,29.96,NNW,333,6.0,6.0,68,0.00,,,0.00,Wunderground v.1.15,2013-03-04 21:55:00,
2013-03-04 17:00:00,29.0,20.1,29.96,West,281,7.0,7.0,69,0.00,,,0.00,Wunderground v.1.15,2013-03-04 22:00:00,
2013-03-04 17:05:00,28.9,20.0,29.96,NW,311,7.0,7.0,69,0.00,,,0.00,Wunderground v.1.15,2013-03-04 22:05:00,
2013-03-04 17:10:00,28.9,20.0,29.96,WNW,298,6.0,6.0,69,0.00,,,0.00,Wunderground v.1.15,2013-03-04 22:10:00,
2013-03-04 17:15:00,28.9,20.3,29.97,WNW,296,7.0,7.0,70,0.00,,,0.00,Wunderground v.1.15,2013-03-04 22:15:00,
2013-03-04 17:25:00,28.8,20.2,29.97,NW,310,6.0,12.0,70,0.00,,,0.00,Wunderground v.1.15,2013-03-04 22:25:00,
2013-03-04 17:30:00,28.8,20.2,29.97,WNW,282,7.0,7.0,70,0.00,,,0.00,Wunderground v.1.15,2013-03-04 22:30:00,
2013-03-04 17:40:00,28.6,20.4,29.97,WNW,285,8.0,8.0,71,0.00,,,0.00,Wunderground v.1.15,2013-03-04 22:40:00,
2013-03-04 17:45:00,28.6,20.4,29.97,West,281,7.0,8.0,71,0.00,,,0.00,Wunderground v.1.15,2013-03-04 22:45:00,
2013-03-04 17:55:00,28.6,20.7,29.98,NW,319,7.0,12.0,72,0.00,,,0.00,Wunderground v.1.15,2013-03-04 22:55:00,
2013-03-04 18:05:00,28.7,20.8,29.98,WNW,300,6.0,7.0,72,0.00,,,0.00,Wunderground v.1.15,2013-03-04 23:05:00,
2013-03-04 18:15:00,28.6,21.0,29.98,NW,309,6.0,6.0,73,0.00,,,0.00,Wunderground v.1.15,2013-03-04 23:15:00,
2013-03-04 18:25:00,28.7,21.1,29.98,NW,321,6.0,6.0,73,0.00,,,0.00,Wunderground v.1.15,2013-03-04 23:25:00,
2013-03-04 18:35:00,28.8,21.6,29.98,WNW,296,5.0,6.0,74,0.00,,,0.00,Wunderground v.1.15,2013-03-04 23:35:00,
2013-03-04 18:40:00,28.7,21.5,29.98,NW,314,5.0,7.0,74,0.00,,,0.00,Wunderground v.1.15,2013-03-04 23:40:00,
2013-03-04 18:50:00,28.8,21.6,29.99,WNW,288,6.0,12.0,74,0.00,,,0.00,Wunderground v.1.15,2013-03-04 23:50:00,
2013-03-04 18:55:00,28.9,21.7,29.99,WNW,283,6.0,12.0,74,0.00,,,0.00,Wunderground v.1.15,2013-03-04 23:55:00,
2013-03-04 19:00:00,28.9,21.7,29.99,NW,316,7.0,7.0,74,0.00,,,0.00,Wunderground v.1.15,2013-03-05 00:00:00,
2013-03-04 19:10:00,28.9,21.7,29.99,NNW,340,5.0,5.0,74,0.00,,,0.00,Wunderground v.1.15,2013-03-05 00:10:00,
2013-03-04 19:20:00,28.9,22.0,29.99,WNW,301,5.0,6.0,75,0.00,,,0.00,Wunderground v.1.15,2013-03-05 00:20:00,
2013-03-04 19:30:00,29.0,22.1,29.99,NW,323,5.0,5.0,75,0.00,,,0.00,Wunderground v.1.15,2013-03-05 00:30:00,
2013-03-04 19:40:00,29.0,22.1,29.99,WNW,299,6.0,8.0,75,0.00,,,0.00,Wunderground v.1.15,2013-03-05 00:40:00,
2013-03-04 19:50:00,29.0,22.1,30.00,West,277,5.0,5.0,75,0.00,,,0.00,Wunderground v.1.15,2013-03-05 00:50:00,
2013-03-04 20:00:00,29.0,22.1,30.00,NNW,330,6.0,6.0,75,0.00,,,0.00,Wunderground v.1.15,2013-03-05 01:00:00,
2013-03-04 20:10:00,29.0,22.1,30.00,WNW,285,6.0,6.0,75,0.00,,,0.00,Wunderground v.1.15,2013-03-05 01:10:00,
2013-03-04 20:15:00,29.0,22.1,30.00,WNW,288,5.0,6.0,75,0.00,,,0.00,Wunderground v.1.15,2013-03-05 01:15:00,
2013-03-04 20:25:00,28.9,22.0,30.01,WNW,303,5.0,7.0,75,0.00,,,0.00,Wunderground v.1.15,2013-03-05 01:25:00,
2013-03-04 20:30:00,28.9,22.0,30.01,NW,307,5.0,9.0,75,0.00,,,0.00,Wunderground v.1.15,2013-03-05 01:30:00,
2013-03-04 20:40:00,28.9,22.0,30.01,NW,304,5.0,5.0,75,0.00,,,0.00,Wunderground v.1.15,2013-03-05 01:40:00,
2013-03-04 20:45:00,28.9,22.0,30.01,WNW,286,6.0,6.0,75,0.00,,,0.00,Wunderground v.1.15,2013-03-05 01:45:00,
2013-03-04 20:55:00,28.8,22.2,30.01,West,279,4.0,5.0,76,0.00,,,0.00,Wunderground v.1.15,2013-03-05 01:55:00,
2013-03-04 21:00:00,28.8,22.2,30.01,WNW,299,4.0,5.0,76,0.00,,,0.00,Wunderground v.1.15,2013-03-05 02:00:00,
2013-03-04 21:10:00,28.7,22.4,30.01,NW,304,4.0,7.0,77,0.00,,,0.00,Wunderground v.1.15,2013-03-05 02:10:00,
2013-03-04 21:20:00,28.5,21.9,30.01,North,6,5.0,5.0,76,0.00,,,0.00,Wunderground v.1.15,2013-03-05 02:20:00,
2013-03-04 21:25:00,28.4,22.1,30.02,NW,325,4.0,5.0,77,0.00,,,0.00,Wunderground v.1.15,2013-03-05 02:25:00,
2013-03-04 21:30:00,28.3,22.0,30.02,NW,321,4.0,4.0,77,0.00,,,0.00,Wunderground v.1.15,2013-03-05 02:30:00,
2013-03-04 21:40:00,28.1,21.5,30.02,North,2,5.0,6.0,76,0.00,,,0.00,Wunderground v.1.15,2013-03-05 02:40:00,
2013-03-04 21:50:00,27.9,21.3,30.02,NW,308,6.0,6.0,76,0.00,,,0.00,Wunderground v.1.15,2013-03-05 02:50:00,
2013-03-04 21:55:00,27.8,20.9,30.03,NNW,329,6.0,9.0,75,0.00,,,0.00,Wunderground v.1.15,2013-03-05 02:55:00,
2013-03-04 22:00:00,27.7,21.1,30.03,North,356,5.0,5.0,76,0.00,,,0.00,Wunderground v.1.15,2013-03-05 03:00:00,
2013-03-04 22:10:00,27.5,20.9,30.03,NW,309,6.0,6.0,76,0.00,,,0.00,Wunderground v.1.15,2013-03-05 03:10:00,
2013-03-04 22:20:00,27.3,20.7,30.03,North,8,5.0,14.0,76,0.00,,,0.00,Wunderground v.1.15,2013-03-05 03:20:00,
2013-03-04 22:25:00,27.3,20.4,30.03,NW,308,5.0,14.0,75,0.00,,,0.00,Wunderground v.1.15,2013-03-05 03:25:00,
2013-03-04 22:30:00,27.2,20.3,30.03,NNW,327,5.0,6.0,75,0.00,,,0.00,Wunderground v.1.15,2013-03-05 03:30:00,
2013-03-04 22:40:00,27.1,20.2,30.03,NW,317,6.0,6.0,75,0.00,,,0.00,Wunderground v.1.15,2013-03-05 03:40:00,
2013-03-04 22:50:00,27.1,20.5,30.03,NNW,334,5.0,5.0,76,0.00,,,0.00,Wunderground v.1.15,2013-03-05 03:50:00,
2013-03-04 23:00:00,27.0,20.4,30.03,WNW,300,5.0,6.0,76,0.00,,,0.00,Wunderground v.1.15,2013-03-05 04:00:00,
2013-03-04 23:10:00,27.0,20.4,30.03,NNW,338,6.0,6.0,76,0.00,,,0.00,Wunderground v.1.15,2013-03-05 04:10:00,
2013-03-04 23:20:00,26.9,20.3,30.03,WNW,300,6.0,6.0,76,0.00,,,0.00,Wunderground v.1.15,2013-03-05 04:20:00,
2013-03-04 23:30:00,26.8,20.6,30.03,WNW,302,5.0,11.0,77,0.00,,,0.00,Wunderground v.1.15,2013-03-05 04:30:00,
2013-03-04 23:40:00,26.7,20.5,30.03,WNW,299,7.0,7.0,77,0.00,,,0.00,Wunderground v.1.15,2013-03-05 04:40:00,
2013-03-04 23:45:00,26.6,20.7,30.03,WNW,290,6.0,7.0,78,0.00,,,0.00,Wunderground v.1.15,2013-03-05 04:45:00,
2013-03-04 23:55:00,26.5,20.6,30.03,NW,305,5.0,5.0,78,0.00,,,0.00,Wunderground v.1.15,2013-03-05 04:55:00,